sensor_id;sensor_type;location;lat;lon;timestamp;temperature;humidity
71155;DHT22;59375;53.216;5.728;2023-04-01T00:01:02;9.90;99.90
71155;DHT22;59375;53.216;5.728;2023-04-01T00:03:28;9.90;99.90
71155;DHT22;59375;53.216;5.728;2023-04-01T00:05:55;9.90;99.90
71155;DHT22;59375;53.216;5.728;2023-04-01T00:08:21;9.90;99.90
71155;DHT22;59375;53.216;5.728;2023-04-01T00:10:46;9.90;99.90
71155;DHT22;59375;53.216;5.728;2023-04-01T00:13:12;9.90;99.90
71155;DHT22;59375;53.216;5.728;2023-04-01T00:15:38;9.90;99.90
71155;DHT22;59375;53.216;5.728;2023-04-01T00:18:03;9.90;99.90
71155;DHT22;59375;53.216;5.728;2023-04-01T00:20:30;9.90;99.90
71155;DHT22;59375;53.216;5.728;2023-04-01T00:22:55;10.00;99.90
71155;DHT22;59375;53.216;5.728;2023-04-01T00:25:21;9.90;99.90
71155;DHT22;59375;53.216;5.728;2023-04-01T00:27:47;9.90;99.90
71155;DHT22;59375;53.216;5.728;2023-04-01T00:30:12;9.90;99.90
71155;DHT22;59375;53.216;5.728;2023-04-01T00:32:38;9.90;99.90
71155;DHT22;59375;53.216;5.728;2023-04-01T00:35:04;9.90;99.90
71155;DHT22;59375;53.216;5.728;2023-04-01T00:37:29;9.90;99.90
71155;DHT22;59375;53.216;5.728;2023-04-01T00:39:55;9.90;99.90
71155;DHT22;59375;53.216;5.728;2023-04-01T00:42:20;9.90;99.90
71155;DHT22;59375;53.216;5.728;2023-04-01T00:44:52;9.90;99.90
71155;DHT22;59375;53.216;5.728;2023-04-01T00:47:18;9.90;99.90
71155;DHT22;59375;53.216;5.728;2023-04-01T00:49:45;9.90;99.90
71155;DHT22;59375;53.216;5.728;2023-04-01T00:52:13;9.90;99.90
71155;DHT22;59375;53.216;5.728;2023-04-01T00:54:39;9.90;99.90
71155;DHT22;59375;53.216;5.728;2023-04-01T00:57:21;9.90;99.90
71155;DHT22;59375;53.216;5.728;2023-04-01T00:59:49;9.90;99.90
71155;DHT22;59375;53.216;5.728;2023-04-01T01:02:17;9.90;99.90
71155;DHT22;59375;53.216;5.728;2023-04-01T01:04:43;9.90;99.90
71155;DHT22;59375;53.216;5.728;2023-04-01T01:10:03;9.90;99.90
71155;DHT22;59375;53.216;5.728;2023-04-01T01:20:32;9.90;99.90
71155;DHT22;59375;53.216;5.728;2023-04-01T01:28:07;9.80;99.90
71155;DHT22;59375;53.216;5.728;2023-04-01T01:30:43;9.80;99.90
71155;DHT22;59375;53.216;5.728;2023-04-01T01:33:33;9.80;99.90
71155;DHT22;59375;53.216;5.728;2023-04-01T01:36:01;9.80;99.90
71155;DHT22;59375;53.216;5.728;2023-04-01T01:38:30;9.80;99.90
71155;DHT22;59375;53.216;5.728;2023-04-01T01:40:56;9.80;99.90
71155;DHT22;59375;53.216;5.728;2023-04-01T01:43:24;9.80;99.90
71155;DHT22;59375;53.216;5.728;2023-04-01T01:45:51;9.70;99.90
71155;DHT22;59375;53.216;5.728;2023-04-01T01:48:18;9.70;99.90
71155;DHT22;59375;53.216;5.728;2023-04-01T01:50:44;9.70;99.90
71155;DHT22;59375;53.216;5.728;2023-04-01T01:53:11;9.70;99.90
71155;DHT22;59375;53.216;5.728;2023-04-01T01:55:38;9.70;99.90
71155;DHT22;59375;53.216;5.728;2023-04-01T01:58:12;9.70;99.90
71155;DHT22;59375;53.216;5.728;2023-04-01T02:00:39;9.70;99.90
71155;DHT22;59375;53.216;5.728;2023-04-01T02:03:05;9.70;99.90
71155;DHT22;59375;53.216;5.728;2023-04-01T02:05:31;9.70;99.90
71155;DHT22;59375;53.216;5.728;2023-04-01T02:08:00;9.70;99.90
71155;DHT22;59375;53.216;5.728;2023-04-01T02:10:26;9.70;99.90
71155;DHT22;59375;53.216;5.728;2023-04-01T02:12:53;9.70;99.90
71155;DHT22;59375;53.216;5.728;2023-04-01T02:15:21;9.70;99.90
71155;DHT22;59375;53.216;5.728;2023-04-01T02:17:47;9.70;99.90
71155;DHT22;59375;53.216;5.728;2023-04-01T02:20:15;9.70;99.90
71155;DHT22;59375;53.216;5.728;2023-04-01T02:22:46;9.70;99.90
71155;DHT22;59375;53.216;5.728;2023-04-01T02:25:14;9.70;99.90
71155;DHT22;59375;53.216;5.728;2023-04-01T02:27:41;9.70;99.90
71155;DHT22;59375;53.216;5.728;2023-04-01T02:30:08;9.70;99.90
71155;DHT22;59375;53.216;5.728;2023-04-01T02:32:33;9.70;99.90
71155;DHT22;59375;53.216;5.728;2023-04-01T02:35:00;9.70;99.90
71155;DHT22;59375;53.216;5.728;2023-04-01T02:37:28;9.70;99.90
71155;DHT22;59375;53.216;5.728;2023-04-01T02:39:54;9.70;99.90
71155;DHT22;59375;53.216;5.728;2023-04-01T02:42:19;9.70;99.90
71155;DHT22;59375;53.216;5.728;2023-04-01T02:44:45;9.70;99.90
71155;DHT22;59375;53.216;5.728;2023-04-01T02:47:10;9.70;99.90
71155;DHT22;59375;53.216;5.728;2023-04-01T02:49:36;9.70;99.90
71155;DHT22;59375;53.216;5.728;2023-04-01T02:52:01;9.70;99.90
71155;DHT22;59375;53.216;5.728;2023-04-01T02:54:27;9.70;99.90
71155;DHT22;59375;53.216;5.728;2023-04-01T02:56:52;9.70;99.90
71155;DHT22;59375;53.216;5.728;2023-04-01T02:59:18;9.70;99.90
71155;DHT22;59375;53.216;5.728;2023-04-01T03:01:43;9.80;99.90
71155;DHT22;59375;53.216;5.728;2023-04-01T03:04:09;9.80;99.90
71155;DHT22;59375;53.216;5.728;2023-04-01T03:06:34;9.80;99.90
71155;DHT22;59375;53.216;5.728;2023-04-01T03:09:00;9.80;99.90
71155;DHT22;59375;53.216;5.728;2023-04-01T03:11:25;9.80;99.90
71155;DHT22;59375;53.216;5.728;2023-04-01T03:13:51;9.80;99.90
71155;DHT22;59375;53.216;5.728;2023-04-01T03:16:16;9.80;99.90
71155;DHT22;59375;53.216;5.728;2023-04-01T03:18:42;9.80;99.90
71155;DHT22;59375;53.216;5.728;2023-04-01T03:21:12;9.80;99.90
71155;DHT22;59375;53.216;5.728;2023-04-01T03:23:38;9.80;99.90
71155;DHT22;59375;53.216;5.728;2023-04-01T03:26:03;9.80;99.90
71155;DHT22;59375;53.216;5.728;2023-04-01T03:28:29;9.80;99.90
71155;DHT22;59375;53.216;5.728;2023-04-01T03:30:54;9.80;99.90
71155;DHT22;59375;53.216;5.728;2023-04-01T03:33:20;9.80;99.90
71155;DHT22;59375;53.216;5.728;2023-04-01T03:35:45;9.80;99.90
71155;DHT22;59375;53.216;5.728;2023-04-01T03:38:10;9.80;99.90
71155;DHT22;59375;53.216;5.728;2023-04-01T03:40:36;9.80;99.90
71155;DHT22;59375;53.216;5.728;2023-04-01T03:43:04;9.80;99.90
71155;DHT22;59375;53.216;5.728;2023-04-01T03:45:33;9.80;99.90
71155;DHT22;59375;53.216;5.728;2023-04-01T03:47:58;9.80;99.90
71155;DHT22;59375;53.216;5.728;2023-04-01T03:50:24;9.80;99.90
71155;DHT22;59375;53.216;5.728;2023-04-01T03:52:50;9.80;99.90
71155;DHT22;59375;53.216;5.728;2023-04-01T03:55:16;9.80;99.90
71155;DHT22;59375;53.216;5.728;2023-04-01T03:57:43;9.80;99.90
71155;DHT22;59375;53.216;5.728;2023-04-01T04:00:08;9.80;99.90
71155;DHT22;59375;53.216;5.728;2023-04-01T04:02:34;9.70;99.90
71155;DHT22;59375;53.216;5.728;2023-04-01T04:05:00;9.70;99.90
71155;DHT22;59375;53.216;5.728;2023-04-01T04:07:26;9.70;99.90
71155;DHT22;59375;53.216;5.728;2023-04-01T04:09:51;9.70;99.90
71155;DHT22;59375;53.216;5.728;2023-04-01T04:12:17;9.70;99.90
71155;DHT22;59375;53.216;5.728;2023-04-01T04:14:42;9.70;99.90
71155;DHT22;59375;53.216;5.728;2023-04-01T04:17:09;9.70;99.90
71155;DHT22;59375;53.216;5.728;2023-04-01T04:19:39;9.70;99.90
71155;DHT22;59375;53.216;5.728;2023-04-01T04:22:04;9.60;99.90
71155;DHT22;59375;53.216;5.728;2023-04-01T04:24:30;9.60;99.90
71155;DHT22;59375;53.216;5.728;2023-04-01T04:26:55;9.60;99.90
71155;DHT22;59375;53.216;5.728;2023-04-01T04:29:21;9.70;99.90
71155;DHT22;59375;53.216;5.728;2023-04-01T04:31:47;9.70;99.90
71155;DHT22;59375;53.216;5.728;2023-04-01T04:34:14;9.70;99.90
71155;DHT22;59375;53.216;5.728;2023-04-01T04:36:40;9.70;99.90
71155;DHT22;59375;53.216;5.728;2023-04-01T04:39:05;9.70;99.90
71155;DHT22;59375;53.216;5.728;2023-04-01T04:41:30;9.70;99.90
71155;DHT22;59375;53.216;5.728;2023-04-01T04:43:56;9.70;99.90
71155;DHT22;59375;53.216;5.728;2023-04-01T04:46:22;9.70;99.90
71155;DHT22;59375;53.216;5.728;2023-04-01T04:48:48;9.70;99.90
71155;DHT22;59375;53.216;5.728;2023-04-01T04:51:14;9.70;99.90
71155;DHT22;59375;53.216;5.728;2023-04-01T04:53:40;9.70;99.90
71155;DHT22;59375;53.216;5.728;2023-04-01T04:56:06;9.70;99.90
71155;DHT22;59375;53.216;5.728;2023-04-01T04:58:31;9.70;99.90
71155;DHT22;59375;53.216;5.728;2023-04-01T05:00:57;9.70;99.90
71155;DHT22;59375;53.216;5.728;2023-04-01T05:03:22;9.70;99.90
71155;DHT22;59375;53.216;5.728;2023-04-01T05:05:49;9.70;99.90
71155;DHT22;59375;53.216;5.728;2023-04-01T05:08:14;9.70;99.90
71155;DHT22;59375;53.216;5.728;2023-04-01T05:10:40;9.70;99.90
71155;DHT22;59375;53.216;5.728;2023-04-01T05:13:05;9.70;99.90
71155;DHT22;59375;53.216;5.728;2023-04-01T05:15:32;9.70;99.90
71155;DHT22;59375;53.216;5.728;2023-04-01T05:17:57;9.70;99.90
71155;DHT22;59375;53.216;5.728;2023-04-01T05:20:23;9.70;99.90
71155;DHT22;59375;53.216;5.728;2023-04-01T05:22:48;9.70;99.90
71155;DHT22;59375;53.216;5.728;2023-04-01T05:25:13;9.70;99.90
71155;DHT22;59375;53.216;5.728;2023-04-01T05:27:39;9.70;99.90
71155;DHT22;59375;53.216;5.728;2023-04-01T05:30:05;9.60;99.90
71155;DHT22;59375;53.216;5.728;2023-04-01T05:32:31;9.70;99.90
71155;DHT22;59375;53.216;5.728;2023-04-01T05:34:56;9.70;99.90
71155;DHT22;59375;53.216;5.728;2023-04-01T05:37:21;9.70;99.90
71155;DHT22;59375;53.216;5.728;2023-04-01T05:39:48;9.70;99.90
71155;DHT22;59375;53.216;5.728;2023-04-01T05:42:13;9.70;99.90
71155;DHT22;59375;53.216;5.728;2023-04-01T05:44:39;9.70;99.90
71155;DHT22;59375;53.216;5.728;2023-04-01T05:47:04;9.70;99.90
71155;DHT22;59375;53.216;5.728;2023-04-01T05:49:30;9.70;99.90
71155;DHT22;59375;53.216;5.728;2023-04-01T05:51:56;9.70;99.90
71155;DHT22;59375;53.216;5.728;2023-04-01T05:54:21;9.70;99.90
71155;DHT22;59375;53.216;5.728;2023-04-01T05:56:47;9.70;99.90
71155;DHT22;59375;53.216;5.728;2023-04-01T05:59:12;9.70;99.90
71155;DHT22;59375;53.216;5.728;2023-04-01T06:01:38;9.70;99.90
71155;DHT22;59375;53.216;5.728;2023-04-01T06:04:04;9.70;99.90
71155;DHT22;59375;53.216;5.728;2023-04-01T06:06:30;9.70;99.90
71155;DHT22;59375;53.216;5.728;2023-04-01T06:08:57;9.70;99.90
71155;DHT22;59375;53.216;5.728;2023-04-01T06:16:58;9.70;99.90
71155;DHT22;59375;53.216;5.728;2023-04-01T06:22:36;9.70;99.90
71155;DHT22;59375;53.216;5.728;2023-04-01T06:43:06;9.70;99.90
71155;DHT22;59375;53.216;5.728;2023-04-01T06:48:16;9.70;99.90
71155;DHT22;59375;53.216;5.728;2023-04-01T06:50:54;9.70;99.90
71155;DHT22;59375;53.216;5.728;2023-04-01T06:55:56;9.80;99.90
71155;DHT22;59375;53.216;5.728;2023-04-01T06:58:23;9.80;99.90
71155;DHT22;59375;53.216;5.728;2023-04-01T07:01:00;9.80;99.90
71155;DHT22;59375;53.216;5.728;2023-04-01T07:03:34;9.70;99.90
71155;DHT22;59375;53.216;5.728;2023-04-01T07:06:05;9.80;99.90
71155;DHT22;59375;53.216;5.728;2023-04-01T07:08:33;9.80;99.90
71155;DHT22;59375;53.216;5.728;2023-04-01T07:11:01;9.80;99.90
71155;DHT22;59375;53.216;5.728;2023-04-01T07:13:29;9.80;99.90
71155;DHT22;59375;53.216;5.728;2023-04-01T07:18:32;9.90;99.90
71155;DHT22;59375;53.216;5.728;2023-04-01T07:20:59;9.80;99.90
71155;DHT22;59375;53.216;5.728;2023-04-01T07:23:27;9.80;99.90
71155;DHT22;59375;53.216;5.728;2023-04-01T07:25:55;9.80;99.90
71155;DHT22;59375;53.216;5.728;2023-04-01T07:28:20;9.80;99.90
71155;DHT22;59375;53.216;5.728;2023-04-01T07:31:00;9.70;99.90
71155;DHT22;59375;53.216;5.728;2023-04-01T07:33:33;9.70;99.90
71155;DHT22;59375;53.216;5.728;2023-04-01T07:38:56;9.60;99.90
71155;DHT22;59375;53.216;5.728;2023-04-01T07:46:34;9.70;99.90
71155;DHT22;59375;53.216;5.728;2023-04-01T07:49:07;9.70;99.90
71155;DHT22;59375;53.216;5.728;2023-04-01T07:51:46;9.70;99.90
71155;DHT22;59375;53.216;5.728;2023-04-01T07:57:30;9.80;99.90
71155;DHT22;59375;53.216;5.728;2023-04-01T08:02:25;9.90;99.90
71155;DHT22;59375;53.216;5.728;2023-04-01T08:07:25;10.00;99.90
71155;DHT22;59375;53.216;5.728;2023-04-01T08:09:55;10.00;99.90
71155;DHT22;59375;53.216;5.728;2023-04-01T08:17:31;10.00;99.90
71155;DHT22;59375;53.216;5.728;2023-04-01T08:22:27;10.10;99.90
71155;DHT22;59375;53.216;5.728;2023-04-01T08:24:54;10.10;99.90
71155;DHT22;59375;53.216;5.728;2023-04-01T08:27:31;10.10;99.90
71155;DHT22;59375;53.216;5.728;2023-04-01T08:30:19;10.10;99.90
71155;DHT22;59375;53.216;5.728;2023-04-01T08:32:50;10.20;99.90
71155;DHT22;59375;53.216;5.728;2023-04-01T08:37:42;10.00;99.90
71155;DHT22;59375;53.216;5.728;2023-04-01T08:40:33;10.00;99.90
71155;DHT22;59375;53.216;5.728;2023-04-01T08:45:41;9.90;99.90
71155;DHT22;59375;53.216;5.728;2023-04-01T08:50:45;10.00;99.90
71155;DHT22;59375;53.216;5.728;2023-04-01T08:56:52;10.00;99.90
71155;DHT22;59375;53.216;5.728;2023-04-01T09:06:49;10.30;99.90
71155;DHT22;59375;53.216;5.728;2023-04-01T09:09:27;10.20;99.90
71155;DHT22;59375;53.216;5.728;2023-04-01T09:12:08;10.20;99.90
71155;DHT22;59375;53.216;5.728;2023-04-01T09:19:53;10.30;99.90
71155;DHT22;59375;53.216;5.728;2023-04-01T09:27:26;10.30;99.90
71155;DHT22;59375;53.216;5.728;2023-04-01T09:32:58;10.40;99.90
71155;DHT22;59375;53.216;5.728;2023-04-01T09:35:47;10.40;99.90
71155;DHT22;59375;53.216;5.728;2023-04-01T09:38:23;10.30;99.90
71155;DHT22;59375;53.216;5.728;2023-04-01T09:46:14;10.40;99.90
71155;DHT22;59375;53.216;5.728;2023-04-01T09:51:28;10.40;99.90
71155;DHT22;59375;53.216;5.728;2023-04-01T09:59:41;9.90;99.90
71155;DHT22;59375;53.216;5.728;2023-04-01T10:04:42;10.00;99.90
71155;DHT22;59375;53.216;5.728;2023-04-01T10:31:11;10.10;99.90
71155;DHT22;59375;53.216;5.728;2023-04-01T10:33:49;10.10;99.90
71155;DHT22;59375;53.216;5.728;2023-04-01T10:44:25;10.00;99.90
71155;DHT22;59375;53.216;5.728;2023-04-01T10:49:37;9.80;99.90
71155;DHT22;59375;53.216;5.728;2023-04-01T10:54:58;9.70;99.90
71155;DHT22;59375;53.216;5.728;2023-04-01T11:05:53;9.80;99.90
71155;DHT22;59375;53.216;5.728;2023-04-01T11:20:52;9.90;99.90
71155;DHT22;59375;53.216;5.728;2023-04-01T11:31:25;9.80;99.90
71155;DHT22;59375;53.216;5.728;2023-04-01T11:34:02;9.80;99.90
71155;DHT22;59375;53.216;5.728;2023-04-01T11:44:16;9.80;99.90
71155;DHT22;59375;53.216;5.728;2023-04-01T11:46:46;10.00;99.90
71155;DHT22;59375;53.216;5.728;2023-04-01T11:52:03;9.90;99.90
71155;DHT22;59375;53.216;5.728;2023-04-01T11:54:35;9.90;99.90
71155;DHT22;59375;53.216;5.728;2023-04-01T11:57:29;10.00;99.90
71155;DHT22;59375;53.216;5.728;2023-04-01T12:10:35;9.70;99.90
71155;DHT22;59375;53.216;5.728;2023-04-01T12:13:04;9.70;99.90
71155;DHT22;59375;53.216;5.728;2023-04-01T12:20:53;9.60;99.90
71155;DHT22;59375;53.216;5.728;2023-04-01T12:40:38;9.60;99.90
71155;DHT22;59375;53.216;5.728;2023-04-01T12:43:10;9.70;99.90
71155;DHT22;59375;53.216;5.728;2023-04-01T12:45:44;9.70;99.90
71155;DHT22;59375;53.216;5.728;2023-04-01T12:48:22;9.70;99.90
71155;DHT22;59375;53.216;5.728;2023-04-01T12:53:41;9.60;99.90
71155;DHT22;59375;53.216;5.728;2023-04-01T13:06:59;9.50;99.90
71155;DHT22;59375;53.216;5.728;2023-04-01T13:17:47;9.30;99.90
71155;DHT22;59375;53.216;5.728;2023-04-01T13:21:03;9.30;99.90
71155;DHT22;59375;53.216;5.728;2023-04-01T13:28:02;9.40;99.90
71155;DHT22;59375;53.216;5.728;2023-04-01T13:30:30;9.30;99.90
71155;DHT22;59375;53.216;5.728;2023-04-01T13:33:00;9.30;99.90
71155;DHT22;59375;53.216;5.728;2023-04-01T13:43:21;9.30;99.90
71155;DHT22;59375;53.216;5.728;2023-04-01T13:56:06;9.10;99.90
71155;DHT22;59375;53.216;5.728;2023-04-01T13:58:38;9.10;99.90
71155;DHT22;59375;53.216;5.728;2023-04-01T14:01:17;9.10;99.90
71155;DHT22;59375;53.216;5.728;2023-04-01T14:06:31;9.00;99.90
71155;DHT22;59375;53.216;5.728;2023-04-01T14:11:27;9.00;99.90
71155;DHT22;59375;53.216;5.728;2023-04-01T14:13:58;9.00;99.90
71155;DHT22;59375;53.216;5.728;2023-04-01T14:16:33;9.00;99.90
71155;DHT22;59375;53.216;5.728;2023-04-01T14:19:11;9.00;99.90
71155;DHT22;59375;53.216;5.728;2023-04-01T14:21:59;9.00;99.90
71155;DHT22;59375;53.216;5.728;2023-04-01T14:32:28;8.80;99.90
71155;DHT22;59375;53.216;5.728;2023-04-01T14:35:12;8.80;99.90
71155;DHT22;59375;53.216;5.728;2023-04-01T14:37:56;8.80;99.90
71155;DHT22;59375;53.216;5.728;2023-04-01T14:46:20;8.80;99.90
71155;DHT22;59375;53.216;5.728;2023-04-01T14:48:51;8.70;99.90
71155;DHT22;59375;53.216;5.728;2023-04-01T14:51:23;8.70;99.90
71155;DHT22;59375;53.216;5.728;2023-04-01T14:54:04;8.70;99.90
71155;DHT22;59375;53.216;5.728;2023-04-01T14:56:35;8.60;99.90
71155;DHT22;59375;53.216;5.728;2023-04-01T14:59:00;8.60;99.90
71155;DHT22;59375;53.216;5.728;2023-04-01T15:01:32;8.60;99.90
71155;DHT22;59375;53.216;5.728;2023-04-01T15:04:08;8.60;99.90
71155;DHT22;59375;53.216;5.728;2023-04-01T15:06:40;8.60;99.90
71155;DHT22;59375;53.216;5.728;2023-04-01T15:09:17;8.60;99.90
71155;DHT22;59375;53.216;5.728;2023-04-01T15:14:21;8.40;99.90
71155;DHT22;59375;53.216;5.728;2023-04-01T15:16:54;8.30;99.90
71155;DHT22;59375;53.216;5.728;2023-04-01T15:19:31;8.30;99.90
71155;DHT22;59375;53.216;5.728;2023-04-01T15:24:56;8.30;99.90
71155;DHT22;59375;53.216;5.728;2023-04-01T15:30:06;8.20;99.90
71155;DHT22;59375;53.216;5.728;2023-04-01T15:37:55;8.20;99.90
71155;DHT22;59375;53.216;5.728;2023-04-01T15:47:58;8.10;99.90
71155;DHT22;59375;53.216;5.728;2023-04-01T15:50:28;8.00;99.90
71155;DHT22;59375;53.216;5.728;2023-04-01T15:53:18;8.00;99.90
71155;DHT22;59375;53.216;5.728;2023-04-01T15:55:50;7.90;99.90
71155;DHT22;59375;53.216;5.728;2023-04-01T15:58:25;7.90;99.90
71155;DHT22;59375;53.216;5.728;2023-04-01T16:03:30;7.80;99.90
71155;DHT22;59375;53.216;5.728;2023-04-01T16:06:44;7.80;99.90
71155;DHT22;59375;53.216;5.728;2023-04-01T16:11:31;7.70;99.90
71155;DHT22;59375;53.216;5.728;2023-04-01T16:14:14;7.70;99.90
71155;DHT22;59375;53.216;5.728;2023-04-01T16:19:33;7.70;99.90
71155;DHT22;59375;53.216;5.728;2023-04-01T16:24:43;7.70;99.90
71155;DHT22;59375;53.216;5.728;2023-04-01T16:32:44;7.60;99.90
71155;DHT22;59375;53.216;5.728;2023-04-01T16:37:39;7.50;99.90
71155;DHT22;59375;53.216;5.728;2023-04-01T16:40:13;7.60;99.90
71155;DHT22;59375;53.216;5.728;2023-04-01T16:42:51;7.60;99.90
71155;DHT22;59375;53.216;5.728;2023-04-01T16:50:52;7.50;99.90
71155;DHT22;59375;53.216;5.728;2023-04-01T16:56:07;7.40;99.90
71155;DHT22;59375;53.216;5.728;2023-04-01T16:58:36;7.40;99.90
71155;DHT22;59375;53.216;5.728;2023-04-01T17:03:32;7.30;99.90
71155;DHT22;59375;53.216;5.728;2023-04-01T17:16:27;7.10;99.90
71155;DHT22;59375;53.216;5.728;2023-04-01T17:18:59;7.10;99.90
71155;DHT22;59375;53.216;5.728;2023-04-01T17:21:44;7.00;99.90
71155;DHT22;59375;53.216;5.728;2023-04-01T17:26:39;7.00;99.90
71155;DHT22;59375;53.216;5.728;2023-04-01T17:29:25;7.00;99.90
71155;DHT22;59375;53.216;5.728;2023-04-01T17:39:41;7.00;99.90
71155;DHT22;59375;53.216;5.728;2023-04-01T17:42:14;7.10;99.90
71155;DHT22;59375;53.216;5.728;2023-04-01T17:50:23;7.00;99.90
71155;DHT22;59375;53.216;5.728;2023-04-01T17:55:37;6.90;99.90
71155;DHT22;59375;53.216;5.728;2023-04-01T17:58:11;6.90;99.90
71155;DHT22;59375;53.216;5.728;2023-04-01T18:00:53;6.80;99.90
71155;DHT22;59375;53.216;5.728;2023-04-01T18:03:41;6.80;99.90
71155;DHT22;59375;53.216;5.728;2023-04-01T18:09:06;6.70;99.90
71155;DHT22;59375;53.216;5.728;2023-04-01T18:22:19;6.80;99.90
71155;DHT22;59375;53.216;5.728;2023-04-01T18:24:56;6.70;99.90
71155;DHT22;59375;53.216;5.728;2023-04-01T18:27:23;6.80;99.90
71155;DHT22;59375;53.216;5.728;2023-04-01T18:40:30;6.80;99.90
71155;DHT22;59375;53.216;5.728;2023-04-01T18:45:27;6.70;99.90
71155;DHT22;59375;53.216;5.728;2023-04-01T18:48:00;6.70;99.90
71155;DHT22;59375;53.216;5.728;2023-04-01T18:50:43;6.70;99.90
71155;DHT22;59375;53.216;5.728;2023-04-01T18:55:39;6.70;99.90
71155;DHT22;59375;53.216;5.728;2023-04-01T18:58:14;6.70;99.90
71155;DHT22;59375;53.216;5.728;2023-04-01T19:00:44;6.70;99.90
71155;DHT22;59375;53.216;5.728;2023-04-01T19:03:20;6.70;99.90
71155;DHT22;59375;53.216;5.728;2023-04-01T19:05:50;6.60;99.90
71155;DHT22;59375;53.216;5.728;2023-04-01T19:08:19;6.60;99.90
71155;DHT22;59375;53.216;5.728;2023-04-01T19:15:51;6.50;99.90
71155;DHT22;59375;53.216;5.728;2023-04-01T19:18:34;6.50;99.90
71155;DHT22;59375;53.216;5.728;2023-04-01T19:26:26;6.50;99.90
71155;DHT22;59375;53.216;5.728;2023-04-01T19:29:13;6.50;99.90
71155;DHT22;59375;53.216;5.728;2023-04-01T19:31:52;6.50;99.90
71155;DHT22;59375;53.216;5.728;2023-04-01T19:37:02;6.50;99.90
71155;DHT22;59375;53.216;5.728;2023-04-01T19:42:28;6.40;99.90
71155;DHT22;59375;53.216;5.728;2023-04-01T19:45:11;6.50;99.90
71155;DHT22;59375;53.216;5.728;2023-04-01T19:52:53;6.40;99.90
71155;DHT22;59375;53.216;5.728;2023-04-01T19:57:52;6.40;99.90
71155;DHT22;59375;53.216;5.728;2023-04-01T20:00:24;6.40;99.90
71155;DHT22;59375;53.216;5.728;2023-04-01T20:06:18;6.40;99.90
71155;DHT22;59375;53.216;5.728;2023-04-01T20:08:26;6.30;99.90
71155;DHT22;59375;53.216;5.728;2023-04-01T20:16:20;6.30;99.90
71155;DHT22;59375;53.216;5.728;2023-04-01T20:18:59;6.30;99.90
71155;DHT22;59375;53.216;5.728;2023-04-01T20:23:55;6.30;99.90
71155;DHT22;59375;53.216;5.728;2023-04-01T20:26:22;6.20;99.90
71155;DHT22;59375;53.216;5.728;2023-04-01T20:31:33;6.20;99.90
71155;DHT22;59375;53.216;5.728;2023-04-01T20:36:54;6.20;99.90
71155;DHT22;59375;53.216;5.728;2023-04-01T20:42:34;6.10;99.90
71155;DHT22;59375;53.216;5.728;2023-04-01T20:44:42;6.10;99.90
71155;DHT22;59375;53.216;5.728;2023-04-01T20:49:41;6.10;99.90
71155;DHT22;59375;53.216;5.728;2023-04-01T21:00:11;6.10;99.90
71155;DHT22;59375;53.216;5.728;2023-04-01T21:08:15;6.10;99.90
71155;DHT22;59375;53.216;5.728;2023-04-01T21:21:06;6.00;99.90
71155;DHT22;59375;53.216;5.728;2023-04-01T21:24:39;6.00;99.90
71155;DHT22;59375;53.216;5.728;2023-04-01T21:37:18;5.80;99.90
71155;DHT22;59375;53.216;5.728;2023-04-01T21:42:37;5.80;99.90
71155;DHT22;59375;53.216;5.728;2023-04-01T21:45:13;5.80;99.90
71155;DHT22;59375;53.216;5.728;2023-04-01T21:48:02;5.70;99.90
71155;DHT22;59375;53.216;5.728;2023-04-01T21:50:41;5.70;99.90
71155;DHT22;59375;53.216;5.728;2023-04-01T21:58:46;5.70;99.90
71155;DHT22;59375;53.216;5.728;2023-04-01T22:09:07;5.70;99.90
71155;DHT22;59375;53.216;5.728;2023-04-01T22:11:49;5.70;99.90
71155;DHT22;59375;53.216;5.728;2023-04-01T22:14:40;5.70;99.90
71155;DHT22;59375;53.216;5.728;2023-04-01T22:17:13;5.70;99.90
71155;DHT22;59375;53.216;5.728;2023-04-01T22:19:52;5.70;99.90
71155;DHT22;59375;53.216;5.728;2023-04-01T22:22:46;5.70;99.90
71155;DHT22;59375;53.216;5.728;2023-04-01T22:25:16;5.70;99.90
71155;DHT22;59375;53.216;5.728;2023-04-01T22:27:55;5.60;99.90
71155;DHT22;59375;53.216;5.728;2023-04-01T22:32:49;5.60;99.90
71155;DHT22;59375;53.216;5.728;2023-04-01T22:35:27;5.60;99.90
71155;DHT22;59375;53.216;5.728;2023-04-01T22:37:58;5.60;99.90
71155;DHT22;59375;53.216;5.728;2023-04-01T22:43:16;5.50;99.90
71155;DHT22;59375;53.216;5.728;2023-04-01T22:53:05;5.30;99.90
71155;DHT22;59375;53.216;5.728;2023-04-01T22:55:33;5.20;99.90
71155;DHT22;59375;53.216;5.728;2023-04-01T22:58:05;5.10;99.90
71155;DHT22;59375;53.216;5.728;2023-04-01T23:00:39;5.00;99.90
71155;DHT22;59375;53.216;5.728;2023-04-01T23:03:17;4.90;99.90
71155;DHT22;59375;53.216;5.728;2023-04-01T23:05:47;4.80;99.90
71155;DHT22;59375;53.216;5.728;2023-04-01T23:10:59;4.70;99.90
71155;DHT22;59375;53.216;5.728;2023-04-01T23:13:29;4.60;99.90
71155;DHT22;59375;53.216;5.728;2023-04-01T23:15:57;4.50;99.90
71155;DHT22;59375;53.216;5.728;2023-04-01T23:21:14;4.40;99.90
71155;DHT22;59375;53.216;5.728;2023-04-01T23:26:20;4.40;99.90
71155;DHT22;59375;53.216;5.728;2023-04-01T23:28:51;4.30;99.90
71155;DHT22;59375;53.216;5.728;2023-04-01T23:31:24;4.30;99.90
71155;DHT22;59375;53.216;5.728;2023-04-01T23:33:54;4.30;99.90
71155;DHT22;59375;53.216;5.728;2023-04-01T23:36:20;4.30;99.90
71155;DHT22;59375;53.216;5.728;2023-04-01T23:38:47;4.20;99.90
71155;DHT22;59375;53.216;5.728;2023-04-01T23:41:18;4.20;99.90
71155;DHT22;59375;53.216;5.728;2023-04-01T23:43:45;4.20;99.90
71155;DHT22;59375;53.216;5.728;2023-04-01T23:46:14;4.20;99.90
71155;DHT22;59375;53.216;5.728;2023-04-01T23:48:41;4.10;99.90
71155;DHT22;59375;53.216;5.728;2023-04-01T23:53:41;4.10;99.90
71155;DHT22;59375;53.216;5.728;2023-04-01T23:56:07;4.00;99.90
71155;DHT22;59375;53.216;5.728;2023-04-01T23:58:49;4.00;99.90
